sensor_id;sensor_type;location;lat;lon;timestamp;P1;durP1;ratioP1;P2;durP2;ratioP2
53781;SDS011;39692;53.114;7.060;2022-07-29T00:01:47;4.75;;;2.15;;
53781;SDS011;39692;53.114;7.060;2022-07-29T00:04:13;4.00;;;2.90;;
53781;SDS011;39692;53.114;7.060;2022-07-29T00:06:39;4.10;;;1.98;;
53781;SDS011;39692;53.114;7.060;2022-07-29T00:09:05;2.85;;;2.00;;
53781;SDS011;39692;53.114;7.060;2022-07-29T00:11:31;3.88;;;2.05;;
53781;SDS011;39692;53.114;7.060;2022-07-29T00:13:58;3.58;;;2.00;;
53781;SDS011;39692;53.114;7.060;2022-07-29T00:16:24;4.40;;;2.60;;
53781;SDS011;39692;53.114;7.060;2022-07-29T00:18:50;5.00;;;2.42;;
53781;SDS011;39692;53.114;7.060;2022-07-29T00:21:16;3.83;;;2.22;;
53781;SDS011;39692;53.114;7.060;2022-07-29T00:23:42;4.07;;;2.40;;
53781;SDS011;39692;53.114;7.060;2022-07-29T00:26:08;5.40;;;2.90;;
53781;SDS011;39692;53.114;7.060;2022-07-29T00:28:34;3.10;;;2.20;;
53781;SDS011;39692;53.114;7.060;2022-07-29T00:31:00;2.97;;;2.28;;
53781;SDS011;39692;53.114;7.060;2022-07-29T00:33:26;4.15;;;2.20;;
53781;SDS011;39692;53.114;7.060;2022-07-29T00:35:52;5.03;;;2.50;;
53781;SDS011;39692;53.114;7.060;2022-07-29T00:38:18;4.85;;;2.72;;
53781;SDS011;39692;53.114;7.060;2022-07-29T00:40:47;4.32;;;2.60;;
53781;SDS011;39692;53.114;7.060;2022-07-29T00:43:13;6.43;;;2.60;;
53781;SDS011;39692;53.114;7.060;2022-07-29T00:45:43;5.10;;;2.40;;
53781;SDS011;39692;53.114;7.060;2022-07-29T00:48:09;5.63;;;2.83;;
53781;SDS011;39692;53.114;7.060;2022-07-29T00:50:36;3.70;;;2.38;;
53781;SDS011;39692;53.114;7.060;2022-07-29T00:53:03;4.60;;;2.78;;
53781;SDS011;39692;53.114;7.060;2022-07-29T00:55:29;3.78;;;2.97;;
53781;SDS011;39692;53.114;7.060;2022-07-29T00:57:55;5.68;;;2.70;;
53781;SDS011;39692;53.114;7.060;2022-07-29T01:00:24;4.75;;;3.00;;
53781;SDS011;39692;53.114;7.060;2022-07-29T01:02:51;5.18;;;3.10;;
53781;SDS011;39692;53.114;7.060;2022-07-29T01:05:17;5.00;;;2.80;;
53781;SDS011;39692;53.114;7.060;2022-07-29T01:07:44;6.03;;;2.92;;
53781;SDS011;39692;53.114;7.060;2022-07-29T01:10:11;4.75;;;2.65;;
53781;SDS011;39692;53.114;7.060;2022-07-29T01:12:38;5.88;;;2.83;;
53781;SDS011;39692;53.114;7.060;2022-07-29T01:15:05;4.53;;;3.17;;
53781;SDS011;39692;53.114;7.060;2022-07-29T01:17:42;5.10;;;2.92;;
53781;SDS011;39692;53.114;7.060;2022-07-29T01:30:14;5.45;;;2.53;;
53781;SDS011;39692;53.114;7.060;2022-07-29T01:32:40;4.60;;;2.45;;
53781;SDS011;39692;53.114;7.060;2022-07-29T01:35:10;4.03;;;2.53;;
53781;SDS011;39692;53.114;7.060;2022-07-29T01:37:57;4.40;;;2.70;;
53781;SDS011;39692;53.114;7.060;2022-07-29T01:40:27;4.53;;;2.47;;
53781;SDS011;39692;53.114;7.060;2022-07-29T01:42:56;3.92;;;2.50;;
53781;SDS011;39692;53.114;7.060;2022-07-29T01:48:11;4.03;;;2.65;;
53781;SDS011;39692;53.114;7.060;2022-07-29T01:50:49;5.38;;;2.40;;
53781;SDS011;39692;53.114;7.060;2022-07-29T01:53:18;4.68;;;2.78;;
53781;SDS011;39692;53.114;7.060;2022-07-29T01:55:47;5.22;;;2.63;;
53781;SDS011;39692;53.114;7.060;2022-07-29T01:58:14;6.25;;;2.35;;
53781;SDS011;39692;53.114;7.060;2022-07-29T02:00:41;5.57;;;2.67;;
53781;SDS011;39692;53.114;7.060;2022-07-29T02:03:11;3.60;;;2.45;;
53781;SDS011;39692;53.114;7.060;2022-07-29T02:05:37;6.38;;;2.60;;
53781;SDS011;39692;53.114;7.060;2022-07-29T02:08:05;4.70;;;2.50;;
53781;SDS011;39692;53.114;7.060;2022-07-29T02:10:34;4.20;;;2.47;;
53781;SDS011;39692;53.114;7.060;2022-07-29T02:13:02;3.22;;;2.30;;
53781;SDS011;39692;53.114;7.060;2022-07-29T02:15:29;4.15;;;2.38;;
53781;SDS011;39692;53.114;7.060;2022-07-29T02:17:57;3.80;;;2.80;;
53781;SDS011;39692;53.114;7.060;2022-07-29T02:20:24;3.70;;;2.17;;
53781;SDS011;39692;53.114;7.060;2022-07-29T02:22:51;3.78;;;2.00;;
53781;SDS011;39692;53.114;7.060;2022-07-29T02:25:17;4.53;;;2.30;;
53781;SDS011;39692;53.114;7.060;2022-07-29T02:27:44;4.30;;;2.35;;
53781;SDS011;39692;53.114;7.060;2022-07-29T02:30:10;4.07;;;2.20;;
53781;SDS011;39692;53.114;7.060;2022-07-29T02:32:37;4.65;;;2.60;;
53781;SDS011;39692;53.114;7.060;2022-07-29T02:35:06;5.07;;;2.40;;
53781;SDS011;39692;53.114;7.060;2022-07-29T02:37:32;6.03;;;2.70;;
53781;SDS011;39692;53.114;7.060;2022-07-29T02:39:59;3.72;;;2.47;;
53781;SDS011;39692;53.114;7.060;2022-07-29T02:42:26;3.13;;;2.10;;
53781;SDS011;39692;53.114;7.060;2022-07-29T02:44:53;4.85;;;2.15;;
53781;SDS011;39692;53.114;7.060;2022-07-29T02:47:20;4.60;;;2.20;;
53781;SDS011;39692;53.114;7.060;2022-07-29T02:49:49;5.43;;;2.17;;
53781;SDS011;39692;53.114;7.060;2022-07-29T02:52:19;4.60;;;2.42;;
53781;SDS011;39692;53.114;7.060;2022-07-29T02:54:58;3.60;;;2.38;;
53781;SDS011;39692;53.114;7.060;2022-07-29T02:59:54;5.18;;;2.28;;
53781;SDS011;39692;53.114;7.060;2022-07-29T03:02:23;5.45;;;2.55;;
53781;SDS011;39692;53.114;7.060;2022-07-29T03:04:50;4.55;;;2.58;;
53781;SDS011;39692;53.114;7.060;2022-07-29T03:07:17;3.47;;;2.30;;
53781;SDS011;39692;53.114;7.060;2022-07-29T03:09:44;4.47;;;2.70;;
53781;SDS011;39692;53.114;7.060;2022-07-29T03:12:10;4.05;;;2.47;;
53781;SDS011;39692;53.114;7.060;2022-07-29T03:14:37;4.72;;;2.53;;
53781;SDS011;39692;53.114;7.060;2022-07-29T03:17:04;3.55;;;2.17;;
53781;SDS011;39692;53.114;7.060;2022-07-29T03:19:30;4.93;;;2.42;;
53781;SDS011;39692;53.114;7.060;2022-07-29T03:21:57;4.38;;;2.42;;
53781;SDS011;39692;53.114;7.060;2022-07-29T03:24:31;4.43;;;2.67;;
53781;SDS011;39692;53.114;7.060;2022-07-29T03:26:57;3.83;;;2.78;;
53781;SDS011;39692;53.114;7.060;2022-07-29T03:29:24;6.03;;;2.97;;
53781;SDS011;39692;53.114;7.060;2022-07-29T03:31:50;4.85;;;2.70;;
53781;SDS011;39692;53.114;7.060;2022-07-29T03:34:17;6.28;;;2.60;;
53781;SDS011;39692;53.114;7.060;2022-07-29T03:36:42;4.82;;;2.85;;
53781;SDS011;39692;53.114;7.060;2022-07-29T03:39:09;5.32;;;2.65;;
53781;SDS011;39692;53.114;7.060;2022-07-29T03:41:36;4.22;;;2.88;;
53781;SDS011;39692;53.114;7.060;2022-07-29T03:44:06;6.72;;;2.50;;
53781;SDS011;39692;53.114;7.060;2022-07-29T03:46:33;4.13;;;2.30;;
53781;SDS011;39692;53.114;7.060;2022-07-29T03:49:00;4.10;;;2.67;;
53781;SDS011;39692;53.114;7.060;2022-07-29T03:51:26;4.15;;;2.22;;
53781;SDS011;39692;53.114;7.060;2022-07-29T03:53:52;4.18;;;2.25;;
53781;SDS011;39692;53.114;7.060;2022-07-29T03:56:21;5.22;;;2.58;;
53781;SDS011;39692;53.114;7.060;2022-07-29T03:58:48;5.78;;;2.67;;
53781;SDS011;39692;53.114;7.060;2022-07-29T04:01:15;4.60;;;2.60;;
53781;SDS011;39692;53.114;7.060;2022-07-29T04:03:43;5.88;;;2.75;;
53781;SDS011;39692;53.114;7.060;2022-07-29T04:06:10;4.53;;;2.95;;
53781;SDS011;39692;53.114;7.060;2022-07-29T04:08:36;5.05;;;2.42;;
53781;SDS011;39692;53.114;7.060;2022-07-29T04:11:02;4.95;;;2.65;;
53781;SDS011;39692;53.114;7.060;2022-07-29T04:13:29;3.83;;;2.78;;
53781;SDS011;39692;53.114;7.060;2022-07-29T04:15:55;6.03;;;2.78;;
53781;SDS011;39692;53.114;7.060;2022-07-29T04:18:21;4.90;;;2.47;;
53781;SDS011;39692;53.114;7.060;2022-07-29T04:20:47;5.50;;;2.60;;
53781;SDS011;39692;53.114;7.060;2022-07-29T04:23:13;7.18;;;2.95;;
53781;SDS011;39692;53.114;7.060;2022-07-29T04:25:39;5.32;;;2.45;;
53781;SDS011;39692;53.114;7.060;2022-07-29T04:28:06;3.92;;;2.63;;
53781;SDS011;39692;53.114;7.060;2022-07-29T04:30:33;4.05;;;2.50;;
53781;SDS011;39692;53.114;7.060;2022-07-29T04:33:03;4.97;;;2.28;;
53781;SDS011;39692;53.114;7.060;2022-07-29T04:35:30;4.65;;;2.63;;
53781;SDS011;39692;53.114;7.060;2022-07-29T04:37:56;6.78;;;2.55;;
53781;SDS011;39692;53.114;7.060;2022-07-29T04:40:22;5.43;;;2.30;;
53781;SDS011;39692;53.114;7.060;2022-07-29T04:42:48;8.20;;;2.65;;
53781;SDS011;39692;53.114;7.060;2022-07-29T04:45:14;4.22;;;2.50;;
53781;SDS011;39692;53.114;7.060;2022-07-29T04:47:40;4.53;;;2.63;;
53781;SDS011;39692;53.114;7.060;2022-07-29T04:50:07;5.78;;;2.55;;
53781;SDS011;39692;53.114;7.060;2022-07-29T04:52:33;4.03;;;2.42;;
53781;SDS011;39692;53.114;7.060;2022-07-29T04:55:00;4.95;;;2.45;;
53781;SDS011;39692;53.114;7.060;2022-07-29T04:57:26;5.63;;;2.53;;
53781;SDS011;39692;53.114;7.060;2022-07-29T04:59:52;3.83;;;2.33;;
53781;SDS011;39692;53.114;7.060;2022-07-29T05:02:19;4.47;;;2.45;;
53781;SDS011;39692;53.114;7.060;2022-07-29T05:04:45;3.72;;;2.15;;
53781;SDS011;39692;53.114;7.060;2022-07-29T05:07:11;4.47;;;2.45;;
53781;SDS011;39692;53.114;7.060;2022-07-29T05:09:37;3.13;;;2.00;;
53781;SDS011;39692;53.114;7.060;2022-07-29T05:12:03;4.20;;;2.22;;
53781;SDS011;39692;53.114;7.060;2022-07-29T05:14:29;4.25;;;2.38;;
53781;SDS011;39692;53.114;7.060;2022-07-29T05:16:55;3.42;;;2.30;;
53781;SDS011;39692;53.114;7.060;2022-07-29T05:19:22;2.97;;;2.40;;
53781;SDS011;39692;53.114;7.060;2022-07-29T05:21:48;4.88;;;2.40;;
53781;SDS011;39692;53.114;7.060;2022-07-29T05:24:14;5.90;;;2.40;;
53781;SDS011;39692;53.114;7.060;2022-07-29T05:26:41;3.90;;;2.47;;
53781;SDS011;39692;53.114;7.060;2022-07-29T05:29:07;4.80;;;2.33;;
53781;SDS011;39692;53.114;7.060;2022-07-29T05:31:33;5.40;;;2.40;;
53781;SDS011;39692;53.114;7.060;2022-07-29T05:33:59;4.43;;;2.28;;
53781;SDS011;39692;53.114;7.060;2022-07-29T05:36:25;4.55;;;2.22;;
53781;SDS011;39692;53.114;7.060;2022-07-29T05:38:51;4.45;;;2.40;;
53781;SDS011;39692;53.114;7.060;2022-07-29T05:41:18;4.57;;;2.80;;
53781;SDS011;39692;53.114;7.060;2022-07-29T05:43:44;4.78;;;2.30;;
53781;SDS011;39692;53.114;7.060;2022-07-29T05:46:10;3.97;;;2.35;;
53781;SDS011;39692;53.114;7.060;2022-07-29T05:48:36;4.60;;;2.25;;
53781;SDS011;39692;53.114;7.060;2022-07-29T05:51:02;4.10;;;2.42;;
53781;SDS011;39692;53.114;7.060;2022-07-29T05:53:28;5.50;;;2.42;;
53781;SDS011;39692;53.114;7.060;2022-07-29T05:55:53;6.53;;;2.72;;
53781;SDS011;39692;53.114;7.060;2022-07-29T05:58:19;4.35;;;2.13;;
53781;SDS011;39692;53.114;7.060;2022-07-29T06:00:45;4.15;;;2.28;;
53781;SDS011;39692;53.114;7.060;2022-07-29T06:03:11;3.58;;;2.35;;
53781;SDS011;39692;53.114;7.060;2022-07-29T06:05:37;5.53;;;2.42;;
53781;SDS011;39692;53.114;7.060;2022-07-29T06:08:03;7.32;;;2.28;;
53781;SDS011;39692;53.114;7.060;2022-07-29T06:10:32;4.47;;;2.20;;
53781;SDS011;39692;53.114;7.060;2022-07-29T06:12:59;4.35;;;2.30;;
53781;SDS011;39692;53.114;7.060;2022-07-29T06:15:25;6.75;;;2.60;;
53781;SDS011;39692;53.114;7.060;2022-07-29T06:17:51;5.50;;;2.30;;
53781;SDS011;39692;53.114;7.060;2022-07-29T06:20:17;6.78;;;2.78;;
53781;SDS011;39692;53.114;7.060;2022-07-29T06:22:43;3.65;;;2.13;;
53781;SDS011;39692;53.114;7.060;2022-07-29T06:25:09;5.10;;;2.22;;
53781;SDS011;39692;53.114;7.060;2022-07-29T06:27:35;3.80;;;2.40;;
53781;SDS011;39692;53.114;7.060;2022-07-29T06:30:00;5.78;;;2.47;;
53781;SDS011;39692;53.114;7.060;2022-07-29T06:32:26;9.02;;;2.70;;
53781;SDS011;39692;53.114;7.060;2022-07-29T06:34:52;5.03;;;2.53;;
53781;SDS011;39692;53.114;7.060;2022-07-29T06:37:18;6.07;;;2.10;;
53781;SDS011;39692;53.114;7.060;2022-07-29T06:39:44;5.20;;;2.75;;
53781;SDS011;39692;53.114;7.060;2022-07-29T06:42:09;4.88;;;2.65;;
53781;SDS011;39692;53.114;7.060;2022-07-29T06:44:35;5.55;;;2.70;;
53781;SDS011;39692;53.114;7.060;2022-07-29T06:47:00;4.95;;;2.30;;
53781;SDS011;39692;53.114;7.060;2022-07-29T06:49:27;4.82;;;2.80;;
53781;SDS011;39692;53.114;7.060;2022-07-29T06:52:03;3.83;;;2.45;;
53781;SDS011;39692;53.114;7.060;2022-07-29T06:54:34;5.82;;;2.90;;
53781;SDS011;39692;53.114;7.060;2022-07-29T06:57:00;5.00;;;3.10;;
53781;SDS011;39692;53.114;7.060;2022-07-29T06:59:25;5.38;;;2.58;;
53781;SDS011;39692;53.114;7.060;2022-07-29T07:01:51;6.70;;;2.60;;
53781;SDS011;39692;53.114;7.060;2022-07-29T07:04:17;5.82;;;2.70;;
53781;SDS011;39692;53.114;7.060;2022-07-29T07:06:42;4.72;;;2.72;;
53781;SDS011;39692;53.114;7.060;2022-07-29T07:09:08;6.47;;;2.92;;
53781;SDS011;39692;53.114;7.060;2022-07-29T07:11:34;5.38;;;3.22;;
53781;SDS011;39692;53.114;7.060;2022-07-29T07:14:00;4.68;;;2.58;;
53781;SDS011;39692;53.114;7.060;2022-07-29T07:16:26;6.93;;;2.75;;
53781;SDS011;39692;53.114;7.060;2022-07-29T07:18:52;9.40;;;2.83;;
53781;SDS011;39692;53.114;7.060;2022-07-29T07:21:17;6.22;;;2.72;;
53781;SDS011;39692;53.114;7.060;2022-07-29T07:23:43;6.38;;;2.83;;
53781;SDS011;39692;53.114;7.060;2022-07-29T07:26:08;4.82;;;2.70;;
53781;SDS011;39692;53.114;7.060;2022-07-29T07:28:35;3.55;;;2.53;;
53781;SDS011;39692;53.114;7.060;2022-07-29T07:31:02;4.85;;;2.42;;
53781;SDS011;39692;53.114;7.060;2022-07-29T07:33:32;6.75;;;2.90;;
53781;SDS011;39692;53.114;7.060;2022-07-29T07:35:58;5.22;;;2.53;;
53781;SDS011;39692;53.114;7.060;2022-07-29T07:38:24;6.30;;;3.00;;
53781;SDS011;39692;53.114;7.060;2022-07-29T07:40:49;5.10;;;2.67;;
53781;SDS011;39692;53.114;7.060;2022-07-29T07:43:15;6.32;;;2.22;;
53781;SDS011;39692;53.114;7.060;2022-07-29T07:45:41;4.07;;;2.83;;
53781;SDS011;39692;53.114;7.060;2022-07-29T07:48:06;3.85;;;2.58;;
53781;SDS011;39692;53.114;7.060;2022-07-29T07:50:35;5.85;;;2.92;;
53781;SDS011;39692;53.114;7.060;2022-07-29T07:53:01;5.65;;;3.03;;
53781;SDS011;39692;53.114;7.060;2022-07-29T07:55:27;3.80;;;3.03;;
53781;SDS011;39692;53.114;7.060;2022-07-29T07:57:53;4.78;;;2.83;;
53781;SDS011;39692;53.114;7.060;2022-07-29T08:00:20;5.45;;;3.30;;
53781;SDS011;39692;53.114;7.060;2022-07-29T08:02:46;5.78;;;3.05;;
53781;SDS011;39692;53.114;7.060;2022-07-29T08:05:12;4.78;;;2.72;;
53781;SDS011;39692;53.114;7.060;2022-07-29T08:07:42;7.18;;;2.80;;
53781;SDS011;39692;53.114;7.060;2022-07-29T08:10:09;6.80;;;3.13;;
53781;SDS011;39692;53.114;7.060;2022-07-29T08:12:35;4.13;;;2.80;;
53781;SDS011;39692;53.114;7.060;2022-07-29T08:15:00;4.40;;;3.05;;
53781;SDS011;39692;53.114;7.060;2022-07-29T08:17:26;5.22;;;2.75;;
53781;SDS011;39692;53.114;7.060;2022-07-29T08:19:52;5.80;;;2.90;;
53781;SDS011;39692;53.114;7.060;2022-07-29T08:22:17;6.80;;;2.90;;
53781;SDS011;39692;53.114;7.060;2022-07-29T08:24:43;5.82;;;2.92;;
53781;SDS011;39692;53.114;7.060;2022-07-29T08:27:09;4.50;;;3.03;;
53781;SDS011;39692;53.114;7.060;2022-07-29T08:29:36;8.43;;;2.80;;
53781;SDS011;39692;53.114;7.060;2022-07-29T08:32:02;5.05;;;3.10;;
53781;SDS011;39692;53.114;7.060;2022-07-29T08:34:29;6.32;;;3.25;;
53781;SDS011;39692;53.114;7.060;2022-07-29T08:36:55;5.70;;;2.88;;
53781;SDS011;39692;53.114;7.060;2022-07-29T08:39:21;6.78;;;3.00;;
53781;SDS011;39692;53.114;7.060;2022-07-29T08:41:47;3.92;;;2.78;;
53781;SDS011;39692;53.114;7.060;2022-07-29T08:44:20;5.78;;;2.72;;
53781;SDS011;39692;53.114;7.060;2022-07-29T08:46:47;4.40;;;2.70;;
53781;SDS011;39692;53.114;7.060;2022-07-29T08:49:14;6.90;;;3.10;;
53781;SDS011;39692;53.114;7.060;2022-07-29T08:51:40;4.70;;;2.80;;
53781;SDS011;39692;53.114;7.060;2022-07-29T08:54:07;5.80;;;3.13;;
53781;SDS011;39692;53.114;7.060;2022-07-29T08:56:34;6.35;;;2.97;;
53781;SDS011;39692;53.114;7.060;2022-07-29T08:59:02;6.15;;;3.55;;
53781;SDS011;39692;53.114;7.060;2022-07-29T09:01:30;6.70;;;2.92;;
53781;SDS011;39692;53.114;7.060;2022-07-29T09:03:58;5.68;;;3.05;;
53781;SDS011;39692;53.114;7.060;2022-07-29T09:06:27;5.55;;;3.08;;
53781;SDS011;39692;53.114;7.060;2022-07-29T09:08:58;6.70;;;3.00;;
53781;SDS011;39692;53.114;7.060;2022-07-29T09:11:24;8.82;;;2.90;;
53781;SDS011;39692;53.114;7.060;2022-07-29T09:13:50;5.15;;;3.10;;
53781;SDS011;39692;53.114;7.060;2022-07-29T09:16:16;5.38;;;2.83;;
53781;SDS011;39692;53.114;7.060;2022-07-29T09:18:43;4.97;;;3.10;;
53781;SDS011;39692;53.114;7.060;2022-07-29T09:21:11;7.65;;;2.92;;
53781;SDS011;39692;53.114;7.060;2022-07-29T09:24:06;4.78;;;2.63;;
53781;SDS011;39692;53.114;7.060;2022-07-29T09:26:33;8.45;;;3.03;;
53781;SDS011;39692;53.114;7.060;2022-07-29T09:29:01;6.13;;;2.88;;
53781;SDS011;39692;53.114;7.060;2022-07-29T09:31:40;5.28;;;2.90;;
53781;SDS011;39692;53.114;7.060;2022-07-29T09:34:07;5.47;;;3.17;;
53781;SDS011;39692;53.114;7.060;2022-07-29T09:36:38;5.88;;;2.78;;
53781;SDS011;39692;53.114;7.060;2022-07-29T09:39:05;6.55;;;3.20;;
53781;SDS011;39692;53.114;7.060;2022-07-29T09:41:43;6.65;;;3.05;;
53781;SDS011;39692;53.114;7.060;2022-07-29T09:44:14;5.95;;;3.28;;
53781;SDS011;39692;53.114;7.060;2022-07-29T09:46:40;5.13;;;3.30;;
53781;SDS011;39692;53.114;7.060;2022-07-29T09:49:18;6.43;;;3.03;;
53781;SDS011;39692;53.114;7.060;2022-07-29T09:51:44;6.15;;;3.20;;
53781;SDS011;39692;53.114;7.060;2022-07-29T09:54:23;6.82;;;3.45;;
53781;SDS011;39692;53.114;7.060;2022-07-29T09:56:50;6.45;;;2.90;;
53781;SDS011;39692;53.114;7.060;2022-07-29T09:59:16;4.95;;;3.17;;
53781;SDS011;39692;53.114;7.060;2022-07-29T10:01:42;7.60;;;2.70;;
53781;SDS011;39692;53.114;7.060;2022-07-29T10:04:08;6.68;;;3.20;;
53781;SDS011;39692;53.114;7.060;2022-07-29T10:06:45;4.97;;;2.92;;
53781;SDS011;39692;53.114;7.060;2022-07-29T10:09:22;6.75;;;3.67;;
53781;SDS011;39692;53.114;7.060;2022-07-29T10:12:02;5.25;;;3.13;;
53781;SDS011;39692;53.114;7.060;2022-07-29T10:14:31;5.45;;;2.88;;
53781;SDS011;39692;53.114;7.060;2022-07-29T10:16:59;5.75;;;2.90;;
53781;SDS011;39692;53.114;7.060;2022-07-29T10:19:29;6.63;;;3.30;;
53781;SDS011;39692;53.114;7.060;2022-07-29T10:21:56;5.50;;;3.22;;
53781;SDS011;39692;53.114;7.060;2022-07-29T10:24:24;5.65;;;3.17;;
53781;SDS011;39692;53.114;7.060;2022-07-29T10:26:50;9.90;;;3.10;;
53781;SDS011;39692;53.114;7.060;2022-07-29T10:29:16;8.00;;;3.50;;
53781;SDS011;39692;53.114;7.060;2022-07-29T10:34:49;6.90;;;3.28;;
53781;SDS011;39692;53.114;7.060;2022-07-29T10:40:01;6.03;;;2.80;;
53781;SDS011;39692;53.114;7.060;2022-07-29T10:42:53;5.32;;;2.88;;
53781;SDS011;39692;53.114;7.060;2022-07-29T10:45:19;7.60;;;3.17;;
53781;SDS011;39692;53.114;7.060;2022-07-29T10:47:45;6.57;;;3.28;;
53781;SDS011;39692;53.114;7.060;2022-07-29T10:50:12;4.93;;;3.42;;
53781;SDS011;39692;53.114;7.060;2022-07-29T10:52:52;11.55;;;3.67;;
53781;SDS011;39692;53.114;7.060;2022-07-29T10:55:34;5.30;;;3.35;;
53781;SDS011;39692;53.114;7.060;2022-07-29T10:58:11;6.65;;;3.53;;
53781;SDS011;39692;53.114;7.060;2022-07-29T11:00:38;6.05;;;3.30;;
53781;SDS011;39692;53.114;7.060;2022-07-29T11:03:05;4.85;;;3.10;;
53781;SDS011;39692;53.114;7.060;2022-07-29T11:05:40;7.80;;;3.72;;
53781;SDS011;39692;53.114;7.060;2022-07-29T11:08:18;5.47;;;3.45;;
53781;SDS011;39692;53.114;7.060;2022-07-29T11:10:50;7.28;;;2.97;;
53781;SDS011;39692;53.114;7.060;2022-07-29T11:16:01;6.55;;;4.13;;
53781;SDS011;39692;53.114;7.060;2022-07-29T11:18:27;5.07;;;3.55;;
53781;SDS011;39692;53.114;7.060;2022-07-29T11:20:53;6.95;;;3.55;;
53781;SDS011;39692;53.114;7.060;2022-07-29T11:31:40;6.55;;;3.67;;
53781;SDS011;39692;53.114;7.060;2022-07-29T11:34:16;11.35;;;4.40;;
53781;SDS011;39692;53.114;7.060;2022-07-29T11:39:39;6.75;;;4.25;;
53781;SDS011;39692;53.114;7.060;2022-07-29T11:44:56;7.13;;;3.50;;
53781;SDS011;39692;53.114;7.060;2022-07-29T11:47:22;9.63;;;3.90;;
53781;SDS011;39692;53.114;7.060;2022-07-29T11:49:49;7.18;;;4.35;;
53781;SDS011;39692;53.114;7.060;2022-07-29T11:52:16;6.30;;;4.45;;
53781;SDS011;39692;53.114;7.060;2022-07-29T11:54:43;8.68;;;4.53;;
53781;SDS011;39692;53.114;7.060;2022-07-29T11:57:09;7.70;;;3.88;;
53781;SDS011;39692;53.114;7.060;2022-07-29T11:59:42;7.50;;;4.28;;
53781;SDS011;39692;53.114;7.060;2022-07-29T12:02:09;8.05;;;4.63;;
53781;SDS011;39692;53.114;7.060;2022-07-29T12:07:31;7.15;;;4.25;;
53781;SDS011;39692;53.114;7.060;2022-07-29T12:09:57;7.28;;;4.05;;
53781;SDS011;39692;53.114;7.060;2022-07-29T12:12:23;4.90;;;3.63;;
53781;SDS011;39692;53.114;7.060;2022-07-29T12:14:50;6.28;;;3.50;;
53781;SDS011;39692;53.114;7.060;2022-07-29T12:17:26;6.70;;;3.95;;
53781;SDS011;39692;53.114;7.060;2022-07-29T12:19:53;7.75;;;3.85;;
53781;SDS011;39692;53.114;7.060;2022-07-29T12:22:26;7.80;;;3.55;;
53781;SDS011;39692;53.114;7.060;2022-07-29T12:24:52;5.63;;;3.50;;
53781;SDS011;39692;53.114;7.060;2022-07-29T12:27:18;8.23;;;3.95;;
53781;SDS011;39692;53.114;7.060;2022-07-29T12:29:45;5.70;;;4.00;;
53781;SDS011;39692;53.114;7.060;2022-07-29T12:32:11;6.85;;;4.03;;
53781;SDS011;39692;53.114;7.060;2022-07-29T12:34:37;7.07;;;3.83;;
53781;SDS011;39692;53.114;7.060;2022-07-29T12:37:03;7.65;;;3.72;;
53781;SDS011;39692;53.114;7.060;2022-07-29T12:39:29;6.97;;;4.00;;
53781;SDS011;39692;53.114;7.060;2022-07-29T12:41:56;8.45;;;4.22;;
53781;SDS011;39692;53.114;7.060;2022-07-29T12:44:22;7.18;;;3.92;;
53781;SDS011;39692;53.114;7.060;2022-07-29T12:47:02;5.50;;;3.42;;
53781;SDS011;39692;53.114;7.060;2022-07-29T12:49:28;8.13;;;3.58;;
53781;SDS011;39692;53.114;7.060;2022-07-29T12:51:54;8.98;;;3.60;;
53781;SDS011;39692;53.114;7.060;2022-07-29T12:54:20;5.88;;;2.90;;
53781;SDS011;39692;53.114;7.060;2022-07-29T12:56:46;8.43;;;3.95;;
53781;SDS011;39692;53.114;7.060;2022-07-29T12:59:23;11.45;;;3.97;;
53781;SDS011;39692;53.114;7.060;2022-07-29T13:01:50;4.55;;;3.20;;
53781;SDS011;39692;53.114;7.060;2022-07-29T13:04:29;7.88;;;3.60;;
53781;SDS011;39692;53.114;7.060;2022-07-29T13:06:59;8.20;;;4.07;;
53781;SDS011;39692;53.114;7.060;2022-07-29T13:09:36;6.15;;;3.67;;
53781;SDS011;39692;53.114;7.060;2022-07-29T13:12:05;6.35;;;3.45;;
53781;SDS011;39692;53.114;7.060;2022-07-29T13:17:03;7.18;;;4.00;;
53781;SDS011;39692;53.114;7.060;2022-07-29T13:19:42;8.15;;;3.65;;
53781;SDS011;39692;53.114;7.060;2022-07-29T13:22:10;5.47;;;3.63;;
53781;SDS011;39692;53.114;7.060;2022-07-29T13:24:58;6.45;;;3.85;;
53781;SDS011;39692;53.114;7.060;2022-07-29T13:27:26;6.85;;;3.80;;
53781;SDS011;39692;53.114;7.060;2022-07-29T13:29:53;6.75;;;3.92;;
53781;SDS011;39692;53.114;7.060;2022-07-29T13:32:22;8.32;;;3.67;;
53781;SDS011;39692;53.114;7.060;2022-07-29T13:34:48;4.65;;;2.90;;
53781;SDS011;39692;53.114;7.060;2022-07-29T13:37:14;4.50;;;3.17;;
53781;SDS011;39692;53.114;7.060;2022-07-29T13:39:41;5.20;;;3.17;;
53781;SDS011;39692;53.114;7.060;2022-07-29T13:42:08;5.57;;;3.08;;
53781;SDS011;39692;53.114;7.060;2022-07-29T13:44:34;6.20;;;3.25;;
53781;SDS011;39692;53.114;7.060;2022-07-29T13:47:00;4.60;;;3.00;;
53781;SDS011;39692;53.114;7.060;2022-07-29T13:49:27;7.13;;;2.67;;
53781;SDS011;39692;53.114;7.060;2022-07-29T13:51:53;9.57;;;3.40;;
53781;SDS011;39692;53.114;7.060;2022-07-29T13:54:19;5.45;;;3.30;;
53781;SDS011;39692;53.114;7.060;2022-07-29T13:56:45;12.05;;;3.50;;
53781;SDS011;39692;53.114;7.060;2022-07-29T13:59:11;6.07;;;3.25;;
53781;SDS011;39692;53.114;7.060;2022-07-29T14:01:38;7.70;;;3.45;;
53781;SDS011;39692;53.114;7.060;2022-07-29T14:04:07;6.88;;;3.28;;
53781;SDS011;39692;53.114;7.060;2022-07-29T14:06:33;9.82;;;3.40;;
53781;SDS011;39692;53.114;7.060;2022-07-29T14:08:59;7.03;;;3.72;;
53781;SDS011;39692;53.114;7.060;2022-07-29T14:11:25;7.32;;;3.92;;
53781;SDS011;39692;53.114;7.060;2022-07-29T14:13:51;7.22;;;4.10;;
53781;SDS011;39692;53.114;7.060;2022-07-29T14:16:17;6.30;;;3.78;;
53781;SDS011;39692;53.114;7.060;2022-07-29T14:18:43;7.90;;;3.92;;
53781;SDS011;39692;53.114;7.060;2022-07-29T14:21:09;10.55;;;3.58;;
53781;SDS011;39692;53.114;7.060;2022-07-29T14:23:36;7.03;;;3.30;;
53781;SDS011;39692;53.114;7.060;2022-07-29T14:26:02;7.57;;;3.47;;
53781;SDS011;39692;53.114;7.060;2022-07-29T14:28:28;6.95;;;3.40;;
53781;SDS011;39692;53.114;7.060;2022-07-29T14:30:54;5.68;;;3.10;;
53781;SDS011;39692;53.114;7.060;2022-07-29T14:33:20;7.43;;;3.47;;
53781;SDS011;39692;53.114;7.060;2022-07-29T14:35:46;8.00;;;3.33;;
53781;SDS011;39692;53.114;7.060;2022-07-29T14:38:13;6.05;;;3.20;;
53781;SDS011;39692;53.114;7.060;2022-07-29T14:40:39;6.75;;;2.55;;
53781;SDS011;39692;53.114;7.060;2022-07-29T14:43:05;5.63;;;2.55;;
53781;SDS011;39692;53.114;7.060;2022-07-29T14:45:31;4.15;;;2.53;;
53781;SDS011;39692;53.114;7.060;2022-07-29T14:47:57;9.75;;;2.85;;
53781;SDS011;39692;53.114;7.060;2022-07-29T14:50:25;5.22;;;2.60;;
53781;SDS011;39692;53.114;7.060;2022-07-29T14:52:51;3.75;;;2.30;;
53781;SDS011;39692;53.114;7.060;2022-07-29T14:55:17;7.22;;;2.67;;
53781;SDS011;39692;53.114;7.060;2022-07-29T14:57:44;4.80;;;2.33;;
53781;SDS011;39692;53.114;7.060;2022-07-29T15:00:10;6.43;;;2.88;;
53781;SDS011;39692;53.114;7.060;2022-07-29T15:02:36;4.90;;;2.20;;
53781;SDS011;39692;53.114;7.060;2022-07-29T15:05:03;6.28;;;2.15;;
53781;SDS011;39692;53.114;7.060;2022-07-29T15:07:29;4.65;;;2.28;;
53781;SDS011;39692;53.114;7.060;2022-07-29T15:09:55;9.10;;;2.90;;
53781;SDS011;39692;53.114;7.060;2022-07-29T15:12:21;8.32;;;2.70;;
53781;SDS011;39692;53.114;7.060;2022-07-29T15:14:47;5.80;;;2.20;;
53781;SDS011;39692;53.114;7.060;2022-07-29T15:17:13;3.85;;;1.77;;
53781;SDS011;39692;53.114;7.060;2022-07-29T15:19:39;3.60;;;1.80;;
53781;SDS011;39692;53.114;7.060;2022-07-29T15:22:05;6.03;;;2.20;;
53781;SDS011;39692;53.114;7.060;2022-07-29T15:24:32;5.03;;;2.17;;
53781;SDS011;39692;53.114;7.060;2022-07-29T15:26:58;5.38;;;2.22;;
53781;SDS011;39692;53.114;7.060;2022-07-29T15:29:24;4.10;;;2.33;;
53781;SDS011;39692;53.114;7.060;2022-07-29T15:31:50;5.28;;;2.53;;
53781;SDS011;39692;53.114;7.060;2022-07-29T15:34:16;7.25;;;2.50;;